カーナーク/チューレ空軍基地 の空港の天気 - METARとTAF

チューレ空軍基地 ( BGTL / THU ) - グリーンランド カーナーク
飛行場実況気象(Metar)
観測時間01/23 00:56 AST (01/23 04:56 UTC)
風向・風速東南東 7m/s
視程10km以上
天気現象
なし
気温-22.6℃
湿度63%
気圧1004.3hPa
METARBGTL 230456Z AUTO 11013KT 9999 CLR M23/M28 A2968 RMK AO2 SLP043 T12261278 TSNO $
過去の天気等 Google飛行場航空写真 Wunderground天気予報

過去48時間のMETAR

飛行場予報(TAF)
データがありません